Time;durP1;ratioP1;P1;durP2;ratioP2;P2;SDS_P1;SDS_P2;PMS_P1;PMS_P2;Temp;Humidity;BMP_temperature;BMP_pressure;BME280_temperature;BME280_humidity;BME280_pressure;Samples;Min_cycle;Max_cycle;Signal;HPM_P1;HPM_P2
2023/06/05 00:02:15;;;;;;;5.95;4.22;;;;;;;;;;5070097;28;25050;-76
2023/06/05 00:04:43;;;;;;;10.57;4.50;;;;;;;;;;5069632;28;25072;-72
2023/06/05 00:07:09;;;;;;;8.25;4.53;;;;;;;;;;5068866;28;25065;-72
2023/06/05 00:09:35;;;;;;;8.50;4.80;;;;;;;;;;5073555;28;25083;-74
2023/06/05 00:12:01;;;;;;;5.03;4.13;;;;;;;;;;5071126;28;25051;-76
2023/06/05 00:14:27;;;;;;;8.90;4.68;;;;;;;;;;5068592;28;25054;-75
2023/06/05 00:16:53;;;;;;;11.88;5.20;;;;;;;;;;5071321;28;25061;-73
2023/06/05 00:19:19;;;;;;;10.32;4.22;;;;;;;;;;5064502;28;25098;-75
2023/06/05 00:21:45;;;;;;;10.05;4.63;;;;;;;;;;5067621;28;25061;-75
2023/06/05 00:24:11;;;;;;;8.63;4.53;;;;;;;;;;5051153;28;25181;-75
2023/06/05 00:26:37;;;;;;;11.90;5.65;;;;;;;;;;5069299;28;25059;-77
2023/06/05 00:29:03;;;;;;;8.63;4.72;;;;;;;;;;5067216;28;25143;-74
2023/06/05 00:31:30;;;;;;;10.90;4.28;;;;;;;;;;5069150;28;25051;-76
2023/06/05 00:33:56;;;;;;;7.85;4.50;;;;;;;;;;5064973;28;25124;-75
2023/06/05 00:36:23;;;;;;;5.85;3.80;;;;;;;;;;5056483;28;25068;-74
2023/06/05 00:38:50;;;;;;;10.02;5.18;;;;;;;;;;5066211;28;25146;-76
2023/06/05 00:41:16;;;;;;;7.53;4.88;;;;;;;;;;5066716;28;25069;-76
2023/06/05 00:43:42;;;;;;;8.25;4.82;;;;;;;;;;5069058;28;25058;-74
2023/06/05 00:46:08;;;;;;;12.98;5.43;;;;;;;;;;5068949;28;25080;-75
2023/06/05 00:48:34;;;;;;;9.27;4.97;;;;;;;;;;5067045;28;25168;-73
2023/06/05 00:51:01;;;;;;;8.77;4.25;;;;;;;;;;5065061;28;25125;-73
2023/06/05 00:53:28;;;;;;;12.85;5.55;;;;;;;;;;5069467;28;25075;-73
2023/06/05 00:55:55;;;;;;;11.15;5.03;;;;;;;;;;5068175;28;25122;-75
2023/06/05 00:58:21;;;;;;;8.23;5.72;;;;;;;;;;5064198;28;25058;-73
2023/06/05 01:00:49;;;;;;;9.88;6.43;;;;;;;;;;5065996;28;25121;-74
2023/06/05 01:03:16;;;;;;;9.45;5.47;;;;;;;;;;5068575;28;25094;-75
2023/06/05 01:05:43;;;;;;;11.85;4.78;;;;;;;;;;5069593;28;25077;-74
2023/06/05 01:08:12;;;;;;;12.48;5.28;;;;;;;;;;5055029;28;25067;-73
2023/06/05 01:10:38;;;;;;;9.38;5.22;;;;;;;;;;5081565;28;25070;-75
2023/06/05 01:13:07;;;;;;;11.90;6.50;;;;;;;;;;5077696;28;25062;-76
2023/06/05 01:15:36;;;;;;;10.10;6.13;;;;;;;;;;5070784;28;25054;-73
2023/06/05 01:18:02;;;;;;;9.18;5.75;;;;;;;;;;5067070;28;25097;-74
2023/06/05 01:20:38;;;;;;;13.07;5.78;;;;;;;;;;5068952;28;25048;-75
2023/06/05 01:23:05;;;;;;;9.88;6.05;;;;;;;;;;5067238;28;25064;-75
2023/06/05 01:25:32;;;;;;;12.90;6.22;;;;;;;;;;5068365;28;25064;-75
2023/06/05 01:28:01;;;;;;;11.02;6.30;;;;;;;;;;5055030;28;25098;-72
2023/06/05 01:30:46;;;;;;;11.02;6.15;;;;;;;;;;5069852;28;25052;-73
2023/06/05 01:33:17;;;;;;;12.38;6.78;;;;;;;;;;5071115;28;25062;-74
2023/06/05 01:35:44;;;;;;;8.68;6.75;;;;;;;;;;5067722;28;25060;-74
2023/06/05 01:38:15;;;;;;;11.05;6.10;;;;;;;;;;5073708;28;25122;-73
2023/06/05 01:40:41;;;;;;;12.40;7.30;;;;;;;;;;5071932;28;25074;-73
2023/06/05 01:43:08;;;;;;;13.60;7.88;;;;;;;;;;5070415;28;25065;-74
2023/06/05 01:45:37;;;;;;;11.27;6.65;;;;;;;;;;5070371;28;25076;-73
2023/06/05 01:48:03;;;;;;;12.23;6.72;;;;;;;;;;5072737;28;25057;-75
2023/06/05 01:50:33;;;;;;;10.73;6.28;;;;;;;;;;5068434;28;25167;-73
2023/06/05 01:53:00;;;;;;;12.05;6.63;;;;;;;;;;5064666;28;25072;-75
2023/06/05 01:55:28;;;;;;;12.85;6.38;;;;;;;;;;5068350;28;25151;-74
2023/06/05 01:57:54;;;;;;;11.85;6.70;;;;;;;;;;5065228;28;25084;-73
2023/06/05 02:00:20;;;;;;;11.57;6.60;;;;;;;;;;5066206;28;25095;-72
2023/06/05 02:02:47;;;;;;;9.38;6.78;;;;;;;;;;5068184;28;25041;-75
2023/06/05 02:05:14;;;;;;;12.35;6.57;;;;;;;;;;5068822;28;25056;-73
2023/06/05 02:07:41;;;;;;;12.10;7.00;;;;;;;;;;5068467;28;25087;-73
2023/06/05 02:10:08;;;;;;;11.70;7.25;;;;;;;;;;5068962;28;25055;-75
2023/06/05 02:12:34;;;;;;;13.55;7.22;;;;;;;;;;5072581;28;25098;-75
2023/06/05 02:15:00;;;;;;;11.05;7.53;;;;;;;;;;5068651;28;25081;-73
2023/06/05 02:17:27;;;;;;;11.75;6.70;;;;;;;;;;5079937;28;25098;-75
2023/06/05 02:19:53;;;;;;;11.05;7.25;;;;;;;;;;5089718;28;25074;-77
2023/06/05 02:22:19;;;;;;;13.20;7.43;;;;;;;;;;5086007;28;25067;-75
2023/06/05 02:24:45;;;;;;;11.77;7.45;;;;;;;;;;5077967;28;25059;-75
2023/06/05 02:27:12;;;;;;;12.02;7.75;;;;;;;;;;5079505;28;25084;-77
2023/06/05 02:29:38;;;;;;;15.70;7.53;;;;;;;;;;5061060;28;25071;-74
2023/06/05 02:32:07;;;;;;;12.15;8.20;;;;;;;;;;5078642;28;25057;-76
2023/06/05 02:34:33;;;;;;;10.52;7.20;;;;;;;;;;5078445;28;25113;-73
2023/06/05 02:37:01;;;;;;;9.98;7.30;;;;;;;;;;5075496;28;25077;-75
2023/06/05 02:39:27;;;;;;;16.10;7.97;;;;;;;;;;5076135;28;25081;-76
2023/06/05 02:41:55;;;;;;;18.30;8.43;;;;;;;;;;5068001;28;25062;-75
2023/06/05 02:44:21;;;;;;;13.10;8.57;;;;;;;;;;5067249;28;25065;-75
2023/06/05 02:46:47;;;;;;;14.18;6.82;;;;;;;;;;5053341;28;25071;-74
2023/06/05 02:49:13;;;;;;;15.30;8.13;;;;;;;;;;5062150;28;25079;-74
2023/06/05 02:51:39;;;;;;;13.82;7.47;;;;;;;;;;5064366;28;25069;-76
2023/06/05 02:54:06;;;;;;;11.85;6.88;;;;;;;;;;5065239;28;25039;-73
2023/06/05 02:56:32;;;;;;;14.82;8.38;;;;;;;;;;5064085;28;25068;-74
2023/06/05 02:58:58;;;;;;;11.90;7.75;;;;;;;;;;5062340;28;25077;-75
2023/06/05 03:01:25;;;;;;;14.02;7.70;;;;;;;;;;5049149;28;25059;-76
2023/06/05 03:03:52;;;;;;;17.45;7.95;;;;;;;;;;5064046;28;25067;-74
2023/06/05 03:06:18;;;;;;;15.73;8.05;;;;;;;;;;5068028;28;25055;-76
2023/06/05 03:08:45;;;;;;;13.73;7.47;;;;;;;;;;5069577;28;25069;-76
2023/06/05 03:11:11;;;;;;;14.77;8.20;;;;;;;;;;5065732;28;25157;-78
2023/06/05 03:13:37;;;;;;;13.95;7.97;;;;;;;;;;5069597;28;25141;-74
2023/06/05 03:16:03;;;;;;;13.25;8.30;;;;;;;;;;5056155;28;25072;-73
2023/06/05 03:18:29;;;;;;;13.52;8.20;;;;;;;;;;5072103;28;25085;-78
2023/06/05 03:20:56;;;;;;;16.08;8.93;;;;;;;;;;5073678;28;25061;-76
2023/06/05 03:23:27;;;;;;;14.70;8.40;;;;;;;;;;5066064;28;25143;-73
2023/06/05 03:25:54;;;;;;;17.58;8.95;;;;;;;;;;5068311;28;25074;-72
2023/06/05 03:28:21;;;;;;;15.77;8.85;;;;;;;;;;5067160;28;25054;-74
2023/06/05 03:30:47;;;;;;;13.00;8.10;;;;;;;;;;5068093;28;25107;-73
2023/06/05 03:33:13;;;;;;;15.23;7.75;;;;;;;;;;5070042;28;25142;-75
2023/06/05 03:35:40;;;;;;;17.50;8.68;;;;;;;;;;5069984;28;25055;-74
2023/06/05 03:38:06;;;;;;;17.75;9.18;;;;;;;;;;5070873;28;25057;-75
2023/06/05 03:40:32;;;;;;;17.05;8.02;;;;;;;;;;5068357;28;25056;-77
2023/06/05 03:42:58;;;;;;;20.17;9.25;;;;;;;;;;5069208;28;25097;-75
2023/06/05 03:45:26;;;;;;;25.73;9.13;;;;;;;;;;5067279;28;25107;-74
2023/06/05 03:47:53;;;;;;;15.55;9.43;;;;;;;;;;5053590;28;25109;-77
2023/06/05 03:50:20;;;;;;;17.63;9.02;;;;;;;;;;5069946;28;25062;-74
2023/06/05 03:52:52;;;;;;;16.38;8.70;;;;;;;;;;5068835;28;25079;-76
2023/06/05 03:55:22;;;;;;;16.88;8.98;;;;;;;;;;5067493;28;25066;-75
2023/06/05 03:57:48;;;;;;;21.20;8.85;;;;;;;;;;5070351;28;25079;-74
2023/06/05 04:00:15;;;;;;;16.17;8.57;;;;;;;;;;5069669;28;25056;-74
2023/06/05 04:02:41;;;;;;;14.38;8.23;;;;;;;;;;5068075;28;25065;-75
2023/06/05 04:05:11;;;;;;;17.05;7.70;;;;;;;;;;5068318;28;25073;-74
2023/06/05 04:07:37;;;;;;;18.42;8.82;;;;;;;;;;5054217;28;25097;-73
2023/06/05 04:10:03;;;;;;;13.05;7.53;;;;;;;;;;5070098;28;25096;-75
2023/06/05 04:12:29;;;;;;;17.25;8.82;;;;;;;;;;5054383;28;25078;-76
2023/06/05 04:14:55;;;;;;;20.75;7.68;;;;;;;;;;5071859;28;25092;-75
2023/06/05 04:17:21;;;;;;;20.27;9.30;;;;;;;;;;5051473;28;25072;-74
2023/06/05 04:19:48;;;;;;;16.67;9.23;;;;;;;;;;5066874;28;25123;-76
2023/06/05 04:22:14;;;;;;;18.02;8.32;;;;;;;;;;5066677;28;25067;-76
2023/06/05 04:24:41;;;;;;;16.10;8.23;;;;;;;;;;5068692;28;25078;-73
2023/06/05 04:27:08;;;;;;;18.60;9.20;;;;;;;;;;5069372;28;25065;-72
2023/06/05 04:29:34;;;;;;;16.33;7.93;;;;;;;;;;5066264;28;25065;-71
2023/06/05 04:32:00;;;;;;;15.23;8.52;;;;;;;;;;5071216;28;25068;-75
2023/06/05 04:34:26;;;;;;;21.73;9.15;;;;;;;;;;5071030;28;25065;-75
2023/06/05 04:36:52;;;;;;;16.45;9.23;;;;;;;;;;5070031;28;25060;-74
2023/06/05 04:39:18;;;;;;;15.60;8.52;;;;;;;;;;5072002;28;25055;-75
2023/06/05 04:41:46;;;;;;;12.85;8.55;;;;;;;;;;5060837;28;25124;-72
2023/06/05 04:44:16;;;;;;;14.25;8.50;;;;;;;;;;5066166;28;25085;-71
2023/06/05 04:46:43;;;;;;;14.80;9.00;;;;;;;;;;5066751;28;25051;-75
2023/06/05 04:49:12;;;;;;;15.07;7.72;;;;;;;;;;5053582;28;25056;-75
2023/06/05 04:51:39;;;;;;;19.75;9.13;;;;;;;;;;5058235;28;25068;-74
2023/06/05 04:54:05;;;;;;;15.30;8.77;;;;;;;;;;5067133;28;25147;-74
2023/06/05 04:56:32;;;;;;;13.00;8.75;;;;;;;;;;5071456;28;25060;-73
2023/06/05 04:58:59;;;;;;;17.05;8.38;;;;;;;;;;5070700;28;25050;-75
2023/06/05 05:01:27;;;;;;;17.90;9.10;;;;;;;;;;5075986;28;25068;-76
2023/06/05 05:03:54;;;;;;;16.85;8.68;;;;;;;;;;5069124;28;25104;-75
2023/06/05 05:06:20;;;;;;;15.80;8.35;;;;;;;;;;5070846;28;25057;-76
2023/06/05 05:08:50;;;;;;;21.33;9.07;;;;;;;;;;5075843;28;25081;-74
2023/06/05 05:11:16;;;;;;;14.13;8.40;;;;;;;;;;5061054;28;25049;-76
2023/06/05 05:13:42;;;;;;;18.80;9.90;;;;;;;;;;5072740;28;25084;-74
2023/06/05 05:16:09;;;;;;;13.15;9.25;;;;;;;;;;5076909;28;25149;-75
2023/06/05 05:18:36;;;;;;;16.38;8.38;;;;;;;;;;5072552;28;25071;-75
2023/06/05 05:21:04;;;;;;;15.13;8.55;;;;;;;;;;5068965;28;25148;-77
2023/06/05 05:23:30;;;;;;;17.83;10.13;;;;;;;;;;5071288;28;25106;-73
2023/06/05 05:25:56;;;;;;;17.50;9.30;;;;;;;;;;5072886;28;25075;-74
2023/06/05 05:28:22;;;;;;;14.52;8.88;;;;;;;;;;5072797;28;25068;-73
2023/06/05 05:30:50;;;;;;;14.98;9.73;;;;;;;;;;5081596;28;25080;-73
2023/06/05 05:33:17;;;;;;;20.40;8.68;;;;;;;;;;5078682;28;25063;-77
2023/06/05 05:35:44;;;;;;;14.57;8.20;;;;;;;;;;5075277;28;25065;-78
2023/06/05 05:38:10;;;;;;;15.35;8.52;;;;;;;;;;5093163;28;25062;-74
2023/06/05 05:40:36;;;;;;;14.93;8.40;;;;;;;;;;5071698;28;25064;-77
2023/06/05 05:43:02;;;;;;;14.07;8.30;;;;;;;;;;5092038;28;25076;-75
2023/06/05 05:45:28;;;;;;;14.05;8.00;;;;;;;;;;5089614;28;25106;-76
2023/06/05 05:47:54;;;;;;;18.73;9.15;;;;;;;;;;5086023;28;25050;-79
2023/06/05 05:50:20;;;;;;;14.93;8.45;;;;;;;;;;5080329;28;25108;-75
2023/06/05 05:52:47;;;;;;;14.82;8.90;;;;;;;;;;5065731;28;25054;-76
2023/06/05 05:55:13;;;;;;;17.83;7.97;;;;;;;;;;5068168;28;25064;-75
2023/06/05 05:57:39;;;;;;;10.95;7.38;;;;;;;;;;5065811;28;25063;-74
2023/06/05 06:00:12;;;;;;;16.05;7.10;;;;;;;;;;5070724;28;25050;-73
2023/06/05 06:02:38;;;;;;;;;;;;;;;;;;5066864;28;25054;-73
2023/06/05 06:05:04;;;;;;;12.38;7.00;;;;;;;;;;5063876;28;25107;-72
2023/06/05 06:07:31;;;;;;;16.13;7.38;;;;;;;;;;5064775;28;25060;-71
2023/06/05 06:09:57;;;;;;;12.27;7.68;;;;;;;;;;5049331;28;25053;-73
2023/06/05 06:12:23;;;;;;;20.95;7.40;;;;;;;;;;5064229;28;25145;-73
2023/06/05 06:14:49;;;;;;;11.82;6.85;;;;;;;;;;5069844;28;25134;-74
2023/06/05 06:17:15;;;;;;;12.40;6.63;;;;;;;;;;5063952;28;25057;-72
2023/06/05 06:19:42;;;;;;;12.05;7.38;;;;;;;;;;5066342;28;25089;-72
2023/06/05 06:22:11;;;;;;;13.75;7.78;;;;;;;;;;5064945;28;25075;-72
2023/06/05 06:24:40;;;;;;;14.68;6.72;;;;;;;;;;5068399;28;25130;-74
2023/06/05 06:27:08;;;;;;;12.15;6.80;;;;;;;;;;5065845;28;25115;-73
2023/06/05 06:29:34;;;;;;;19.50;7.88;;;;;;;;;;5068399;28;25065;-74
2023/06/05 06:32:00;;;;;;;16.42;7.60;;;;;;;;;;5071337;28;25065;-72
2023/06/05 06:34:26;;;;;;;11.90;7.03;;;;;;;;;;5053210;28;25068;-75
2023/06/05 06:36:52;;;;;;;17.23;6.88;;;;;;;;;;5053061;28;25051;-74
2023/06/05 06:39:18;;;;;;;14.13;7.53;;;;;;;;;;5070312;28;25130;-72
2023/06/05 06:41:45;;;;;;;17.17;7.35;;;;;;;;;;5071606;28;25084;-75
2023/06/05 06:44:11;;;;;;;15.45;6.70;;;;;;;;;;5063364;28;25066;-71
2023/06/05 06:46:37;;;;;;;12.65;7.65;;;;;;;;;;5062539;28;25142;-73
2023/06/05 06:49:03;;;;;;;13.55;6.78;;;;;;;;;;5066340;28;25053;-72
2023/06/05 06:51:29;;;;;;;10.73;6.72;;;;;;;;;;5062975;28;25071;-71
2023/06/05 06:53:55;;;;;;;11.48;7.10;;;;;;;;;;5064372;28;25062;-74
2023/06/05 06:56:21;;;;;;;14.30;6.93;;;;;;;;;;5062469;28;25174;-73
2023/06/05 06:58:48;;;;;;;12.82;7.90;;;;;;;;;;5039998;28;25153;-71
2023/06/05 07:01:14;;;;;;;10.57;6.80;;;;;;;;;;5052041;28;25152;-72
2023/06/05 07:03:41;;;;;;;14.95;7.47;;;;;;;;;;5057441;28;25099;-73
2023/06/05 07:06:07;;;;;;;14.60;7.68;;;;;;;;;;5059933;28;25100;-70
2023/06/05 07:08:33;;;;;;;11.40;7.15;;;;;;;;;;5058659;28;25062;-71
2023/06/05 07:10:59;;;;;;;15.02;7.35;;;;;;;;;;5056990;28;25072;-73
2023/06/05 07:13:25;;;;;;;12.75;6.97;;;;;;;;;;5054238;28;25054;-71
2023/06/05 07:15:52;;;;;;;13.10;7.72;;;;;;;;;;5056030;28;25144;-74
2023/06/05 07:18:19;;;;;;;14.40;7.53;;;;;;;;;;5056859;28;25105;-74
2023/06/05 07:20:45;;;;;;;10.80;6.63;;;;;;;;;;5058733;28;25057;-71
2023/06/05 07:23:11;;;;;;;13.20;6.88;;;;;;;;;;5057847;28;25076;-73
2023/06/05 07:25:37;;;;;;;10.82;6.63;;;;;;;;;;5059783;28;25090;-72
2023/06/05 07:28:06;;;;;;;16.42;7.95;;;;;;;;;;5056742;28;25041;-73
2023/06/05 07:30:32;;;;;;;10.93;6.68;;;;;;;;;;5040802;28;25290;-74
2023/06/05 07:32:58;;;;;;;13.65;8.02;;;;;;;;;;5052116;28;25144;-72
2023/06/05 07:35:24;;;;;;;14.13;7.22;;;;;;;;;;5053683;28;25056;-72
2023/06/05 07:37:50;;;;;;;13.02;7.10;;;;;;;;;;5051780;28;25058;-74
2023/06/05 07:40:16;;;;;;;14.82;7.82;;;;;;;;;;5053223;28;25145;-72
2023/06/05 07:42:42;;;;;;;11.60;7.43;;;;;;;;;;5051710;28;25166;-71
2023/06/05 07:45:08;;;;;;;14.95;7.90;;;;;;;;;;5060886;28;25085;-72
2023/06/05 07:47:34;;;;;;;11.82;7.35;;;;;;;;;;5068723;28;25053;-73
2023/06/05 07:50:03;;;;;;;11.98;6.55;;;;;;;;;;5059076;28;25068;-72
2023/06/05 07:52:29;;;;;;;10.00;6.97;;;;;;;;;;5052212;28;25057;-73
2023/06/05 07:54:55;;;;;;;11.70;7.10;;;;;;;;;;5056806;28;25064;-73
2023/06/05 07:57:21;;;;;;;10.15;7.10;;;;;;;;;;5055735;28;25078;-73
2023/06/05 07:59:48;;;;;;;10.48;6.85;;;;;;;;;;5058189;28;25065;-73
2023/06/05 08:02:15;;;;;;;12.18;6.32;;;;;;;;;;5059615;28;25048;-74
2023/06/05 08:04:41;;;;;;;13.77;6.70;;;;;;;;;;5057470;28;25070;-74
2023/06/05 08:07:07;;;;;;;8.65;5.30;;;;;;;;;;5042497;28;25103;-72
2023/06/05 08:09:33;;;;;;;10.88;5.70;;;;;;;;;;5057677;28;25111;-73
2023/06/05 08:11:59;;;;;;;9.93;5.85;;;;;;;;;;5058256;28;25080;-74
2023/06/05 08:14:25;;;;;;;12.40;6.05;;;;;;;;;;5059693;28;25171;-73
2023/06/05 08:16:52;;;;;;;10.05;5.95;;;;;;;;;;5057610;28;25093;-73
2023/06/05 08:19:18;;;;;;;8.73;6.18;;;;;;;;;;5056451;28;25129;-71
2023/06/05 08:21:44;;;;;;;14.13;6.47;;;;;;;;;;5057720;28;25052;-71
2023/06/05 08:24:10;;;;;;;8.02;5.78;;;;;;;;;;5055383;28;25131;-74
2023/06/05 08:26:36;;;;;;;11.65;6.38;;;;;;;;;;5057278;28;25091;-73
2023/06/05 08:29:02;;;;;;;8.40;5.70;;;;;;;;;;5055499;28;25067;-73
2023/06/05 08:31:28;;;;;;;9.40;5.43;;;;;;;;;;5055555;28;25079;-75
2023/06/05 08:33:54;;;;;;;8.52;6.13;;;;;;;;;;5053431;28;25062;-72
2023/06/05 08:36:21;;;;;;;9.98;6.50;;;;;;;;;;5056399;28;25135;-73
2023/06/05 08:38:47;;;;;;;9.07;5.72;;;;;;;;;;5054527;28;25144;-73
2023/06/05 08:41:16;;;;;;;12.57;6.38;;;;;;;;;;5054692;28;25132;-71
2023/06/05 08:43:44;;;;;;;7.80;5.55;;;;;;;;;;5055052;28;25137;-71
2023/06/05 08:46:11;;;;;;;10.15;7.10;;;;;;;;;;5041637;28;25065;-75
2023/06/05 08:48:39;;;;;;;11.13;6.20;;;;;;;;;;5054421;28;25154;-73
2023/06/05 08:51:07;;;;;;;7.05;5.30;;;;;;;;;;5060780;28;25064;-73
2023/06/05 08:53:34;;;;;;;10.63;5.35;;;;;;;;;;5059499;28;25131;-72
2023/06/05 08:56:00;;;;;;;11.85;6.28;;;;;;;;;;5057730;28;25059;-73
2023/06/05 08:58:26;;;;;;;10.38;6.40;;;;;;;;;;5033762;28;25047;-72
2023/06/05 09:00:53;;;;;;;8.93;5.65;;;;;;;;;;5041362;28;25059;-73
2023/06/05 09:03:20;;;;;;;14.50;5.78;;;;;;;;;;5036904;28;25099;-70
2023/06/05 09:05:47;;;;;;;9.48;5.35;;;;;;;;;;5043090;28;25052;-72
2023/06/05 09:08:13;;;;;;;7.63;5.50;;;;;;;;;;5035154;28;25067;-73
2023/06/05 09:10:39;;;;;;;10.05;5.25;;;;;;;;;;5036154;28;25087;-72
2023/06/05 09:13:05;;;;;;;8.00;5.65;;;;;;;;;;5035017;28;25065;-74
2023/06/05 09:15:33;;;;;;;8.77;5.45;;;;;;;;;;5041182;28;25064;-70
2023/06/05 09:18:03;;;;;;;6.40;4.78;;;;;;;;;;5038184;28;25071;-72
2023/06/05 09:20:31;;;;;;;22.00;5.20;;;;;;;;;;5036457;28;25159;-72
2023/06/05 09:22:57;;;;;;;7.43;5.03;;;;;;;;;;5035041;28;25099;-72
2023/06/05 09:25:23;;;;;;;9.35;4.40;;;;;;;;;;5034351;28;25076;-74
2023/06/05 09:28:08;;;;;;;7.22;4.65;;;;;;;;;;5034628;28;25157;-72
2023/06/05 09:30:34;;;;;;;6.47;4.38;;;;;;;;;;5039187;28;25122;-73
2023/06/05 09:33:09;;;;;;;9.90;4.70;;;;;;;;;;5035958;28;25103;-74
2023/06/05 09:35:38;;;;;;;10.60;4.70;;;;;;;;;;5037884;28;25080;-73
2023/06/05 09:38:04;;;;;;;10.02;4.68;;;;;;;;;;5034449;28;25065;-74
2023/06/05 09:40:41;;;;;;;12.25;4.30;;;;;;;;;;5035312;28;25075;-70
2023/06/05 09:43:22;;;;;;;7.63;4.78;;;;;;;;;;5031207;28;25102;-72
2023/06/05 09:45:48;;;;;;;5.18;4.13;;;;;;;;;;5034274;28;25054;-71
2023/06/05 09:48:14;;;;;;;9.20;4.03;;;;;;;;;;5033164;28;25112;-74
2023/06/05 09:50:41;;;;;;;8.25;4.45;;;;;;;;;;5038184;28;25072;-74
2023/06/05 09:53:08;;;;;;;6.45;4.55;;;;;;;;;;5045183;28;25057;-70
2023/06/05 09:55:35;;;;;;;9.35;4.18;;;;;;;;;;5054046;28;25075;-71
2023/06/05 09:58:13;;;;;;;8.02;3.90;;;;;;;;;;5043224;28;25051;-71
2023/06/05 10:00:41;;;;;;;7.10;4.00;;;;;;;;;;5058155;28;25068;-72
2023/06/05 10:03:10;;;;;;;5.72;3.58;;;;;;;;;;5056768;28;25057;-69
2023/06/05 10:05:38;;;;;;;11.13;3.78;;;;;;;;;;5054453;28;25055;-72
2023/06/05 10:08:04;;;;;;;7.88;3.60;;;;;;;;;;5039543;28;25055;-71
2023/06/05 10:10:30;;;;;;;5.22;4.00;;;;;;;;;;5053431;28;25068;-71
2023/06/05 10:12:57;;;;;;;6.43;4.25;;;;;;;;;;5052806;28;25093;-70
2023/06/05 10:15:24;;;;;;;8.23;4.72;;;;;;;;;;5053965;28;25102;-72
2023/06/05 10:17:51;;;;;;;5.70;4.00;;;;;;;;;;5051985;28;25095;-70
2023/06/05 10:20:17;;;;;;;5.18;4.13;;;;;;;;;;5053512;28;25082;-72
2023/06/05 10:22:43;;;;;;;6.78;4.20;;;;;;;;;;5052005;28;25072;-72
2023/06/05 10:25:12;;;;;;;7.68;4.45;;;;;;;;;;5056495;28;25146;-71
2023/06/05 10:27:53;;;;;;;6.22;4.43;;;;;;;;;;5053002;28;25077;-72
2023/06/05 10:30:38;;;;;;;8.85;5.05;;;;;;;;;;5052022;28;25122;-74
2023/06/05 10:33:22;;;;;;;7.55;4.68;;;;;;;;;;5051492;28;25085;-70
2023/06/05 10:35:52;;;;;;;7.07;4.35;;;;;;;;;;5053074;28;25062;-72
2023/06/05 10:38:23;;;;;;;7.53;5.15;;;;;;;;;;5039773;28;25073;-72
2023/06/05 10:40:52;;;;;;;5.85;4.90;;;;;;;;;;5053605;28;25133;-70
2023/06/05 10:43:27;;;;;;;6.30;4.80;;;;;;;;;;5049375;28;25061;-74
2023/06/05 10:45:54;;;;;;;8.77;5.43;;;;;;;;;;5053709;28;25064;-73
2023/06/05 10:48:20;;;;;;;7.32;5.57;;;;;;;;;;5053073;28;25072;-74
2023/06/05 10:50:46;;;;;;;11.75;5.28;;;;;;;;;;5053201;28;25083;-73
2023/06/05 10:53:32;;;;;;;7.30;5.03;;;;;;;;;;5051849;28;25091;-73
2023/06/05 10:55:58;;;;;;;8.57;5.35;;;;;;;;;;5041364;28;25166;-73
2023/06/05 10:58:24;;;;;;;10.23;5.22;;;;;;;;;;5056139;28;25045;-73
2023/06/05 11:01:16;;;;;;;9.23;5.50;;;;;;;;;;5052862;28;25056;-73
2023/06/05 11:04:00;;;;;;;10.07;5.80;;;;;;;;;;5053580;28;25128;-72
2023/06/05 11:06:27;;;;;;;7.85;5.45;;;;;;;;;;5059965;28;25061;-73
2023/06/05 11:09:12;;;;;;;8.98;5.68;;;;;;;;;;5060914;28;25076;-72
2023/06/05 11:11:57;;;;;;;7.88;5.30;;;;;;;;;;5056104;28;25074;-72
2023/06/05 11:14:23;;;;;;;12.52;6.53;;;;;;;;;;5052683;28;25076;-71
2023/06/05 11:16:49;;;;;;;8.77;5.90;;;;;;;;;;5054494;28;25064;-72
2023/06/05 11:19:22;;;;;;;12.38;6.05;;;;;;;;;;5051661;28;25054;-74
2023/06/05 11:22:11;;;;;;;10.90;5.22;;;;;;;;;;5059369;28;25052;-72
2023/06/05 11:24:37;;;;;;;11.00;6.10;;;;;;;;;;5063462;28;25153;-72
2023/06/05 11:27:05;;;;;;;8.43;5.88;;;;;;;;;;5061159;28;25097;-74
2023/06/05 11:29:31;;;;;;;8.45;5.55;;;;;;;;;;5069767;28;25066;-71
2023/06/05 11:31:57;;;;;;;9.65;5.47;;;;;;;;;;5067156;28;25074;-73
2023/06/05 11:34:23;;;;;;;11.60;5.82;;;;;;;;;;5058513;28;25072;-74
2023/06/05 11:36:49;;;;;;;8.70;5.45;;;;;;;;;;5052196;28;25074;-71
2023/06/05 11:39:15;;;;;;;9.85;5.38;;;;;;;;;;5034918;28;25082;-73
2023/06/05 11:41:45;;;;;;;8.95;5.40;;;;;;;;;;5047353;28;25098;-73
2023/06/05 11:44:11;;;;;;;10.10;6.25;;;;;;;;;;5044174;28;25070;-73
2023/06/05 11:46:38;;;;;;;14.07;5.55;;;;;;;;;;5048651;28;25090;-72
2023/06/05 11:49:04;;;;;;;9.63;5.07;;;;;;;;;;5048149;28;25080;-72
2023/06/05 11:51:36;;;;;;;7.05;4.88;;;;;;;;;;5052375;28;25059;-74
2023/06/05 11:54:04;;;;;;;6.78;4.78;;;;;;;;;;5044606;28;25046;-74
2023/06/05 11:56:32;;;;;;;7.82;4.72;;;;;;;;;;5041924;28;25061;-74
2023/06/05 11:58:58;;;;;;;8.00;5.13;;;;;;;;;;5039864;28;25088;-75
2023/06/05 12:01:31;;;;;;;11.27;5.35;;;;;;;;;;5039306;28;25091;-74
2023/06/05 12:04:07;;;;;;;8.95;4.43;;;;;;;;;;5038638;28;25077;-73
2023/06/05 12:06:34;;;;;;;6.78;4.10;;;;;;;;;;5039986;28;25075;-74
2023/06/05 12:09:10;;;;;;;5.47;3.75;;;;;;;;;;5041737;28;25071;-73
2023/06/05 12:11:37;;;;;;;6.53;4.00;;;;;;;;;;5046671;28;25051;-76
2023/06/05 12:14:03;;;;;;;6.82;4.15;;;;;;;;;;5045420;28;25061;-69
2023/06/05 12:16:50;;;;;;;8.32;3.17;;;;;;;;;;5050857;28;25075;-71
2023/06/05 12:19:17;;;;;;;8.05;4.60;;;;;;;;;;5049010;28;25073;-71
2023/06/05 12:21:47;;;;;;;5.57;3.78;;;;;;;;;;5052483;28;25055;-72
2023/06/05 12:24:13;;;;;;;6.10;4.22;;;;;;;;;;5054546;28;25078;-74
2023/06/05 12:26:59;;;;;;;10.35;4.50;;;;;;;;;;5069553;28;25061;-72
2023/06/05 12:29:28;;;;;;;7.53;3.78;;;;;;;;;;5066623;28;25077;-75
2023/06/05 12:31:54;;;;;;;5.32;3.67;;;;;;;;;;5067892;28;25057;-73
2023/06/05 12:34:39;;;;;;;9.40;4.50;;;;;;;;;;5067670;28;25062;-74
2023/06/05 12:37:08;;;;;;;7.22;3.85;;;;;;;;;;5065762;28;25085;-73
2023/06/05 12:39:35;;;;;;;8.50;3.60;;;;;;;;;;5063997;28;25161;-73
2023/06/05 12:42:01;;;;;;;6.43;3.85;;;;;;;;;;5050293;28;25094;-75
2023/06/05 12:44:27;;;;;;;6.38;4.13;;;;;;;;;;5029658;28;25060;-74
2023/06/05 12:46:53;;;;;;;6.55;3.42;;;;;;;;;;5040894;28;25070;-75
2023/06/05 12:49:19;;;;;;;6.65;3.65;;;;;;;;;;5040507;28;25086;-76
2023/06/05 12:51:45;;;;;;;5.90;2.63;;;;;;;;;;5037337;28;25100;-72
2023/06/05 12:54:11;;;;;;;7.72;3.70;;;;;;;;;;5037716;28;25071;-72
2023/06/05 12:56:38;;;;;;;5.30;3.33;;;;;;;;;;5035792;28;25075;-73
2023/06/05 12:59:04;;;;;;;4.70;3.03;;;;;;;;;;5035433;28;25162;-72
2023/06/05 13:01:31;;;;;;;4.93;3.05;;;;;;;;;;5036441;28;25061;-73
2023/06/05 13:03:57;;;;;;;6.63;3.35;;;;;;;;;;5036158;28;25071;-71
2023/06/05 13:06:23;;;;;;;4.53;3.45;;;;;;;;;;5037705;28;25147;-72
2023/06/05 13:08:50;;;;;;;6.63;3.97;;;;;;;;;;5036365;28;25124;-72
2023/06/05 13:11:16;;;;;;;7.85;3.33;;;;;;;;;;5037520;28;25073;-74
2023/06/05 13:13:42;;;;;;;10.20;2.90;;;;;;;;;;5038829;28;25050;-73
2023/06/05 13:16:10;;;;;;;7.32;3.90;;;;;;;;;;5040638;28;25076;-70
2023/06/05 13:18:36;;;;;;;5.03;3.05;;;;;;;;;;5039750;28;25101;-70
2023/06/05 13:21:05;;;;;;;5.40;2.85;;;;;;;;;;5042056;28;25077;-73
2023/06/05 13:23:32;;;;;;;6.07;3.38;;;;;;;;;;5038704;28;25102;-74
2023/06/05 13:25:58;;;;;;;4.72;3.25;;;;;;;;;;5039022;28;25078;-71
2023/06/05 13:28:24;;;;;;;7.13;4.30;;;;;;;;;;5032639;28;25061;-76
2023/06/05 13:30:51;;;;;;;5.43;3.28;;;;;;;;;;5039898;28;25073;-75
2023/06/05 13:33:18;;;;;;;9.25;4.18;;;;;;;;;;5055221;28;25063;-74
2023/06/05 13:35:44;;;;;;;7.20;3.30;;;;;;;;;;5057246;28;25060;-73
2023/06/05 13:38:10;;;;;;;7.43;3.63;;;;;;;;;;5040192;28;25149;-78
2023/06/05 13:40:36;;;;;;;10.50;4.00;;;;;;;;;;5055867;28;25071;-73
2023/06/05 13:43:02;;;;;;;8.48;4.70;;;;;;;;;;5053015;28;25044;-74
2023/06/05 13:45:28;;;;;;;14.38;4.72;;;;;;;;;;5056373;28;25141;-73
2023/06/05 13:47:54;;;;;;;8.85;4.82;;;;;;;;;;5038355;28;25063;-73
2023/06/05 13:50:20;;;;;;;9.02;4.47;;;;;;;;;;5035790;28;25073;-72
2023/06/05 13:52:46;;;;;;;10.40;4.40;;;;;;;;;;5038359;28;25058;-74
2023/06/05 13:55:12;;;;;;;7.13;4.25;;;;;;;;;;5036812;28;25104;-72
2023/06/05 13:57:38;;;;;;;14.85;5.00;;;;;;;;;;5036032;28;25145;-71
2023/06/05 14:00:05;;;;;;;9.50;4.50;;;;;;;;;;5037004;28;25055;-73
2023/06/05 14:02:31;;;;;;;9.80;4.50;;;;;;;;;;5036249;28;25074;-73
2023/06/05 14:04:57;;;;;;;9.85;5.03;;;;;;;;;;5036886;28;25093;-74
2023/06/05 14:07:23;;;;;;;7.50;4.07;;;;;;;;;;5035223;28;25168;-73
2023/06/05 14:09:49;;;;;;;6.25;4.03;;;;;;;;;;5037869;28;25112;-72
2023/06/05 14:12:17;;;;;;;9.05;5.40;;;;;;;;;;5034398;28;25142;-74
2023/06/05 14:14:43;;;;;;;7.20;5.10;;;;;;;;;;5039138;28;25044;-74
2023/06/05 14:17:09;;;;;;;9.38;5.65;;;;;;;;;;5034644;28;25064;-74
2023/06/05 14:19:35;;;;;;;11.30;5.50;;;;;;;;;;5038171;28;25133;-72
2023/06/05 14:22:01;;;;;;;9.27;5.15;;;;;;;;;;5035884;28;25100;-73
2023/06/05 14:24:27;;;;;;;9.88;5.88;;;;;;;;;;5035584;28;25059;-73
2023/06/05 14:26:55;;;;;;;8.57;5.15;;;;;;;;;;5047036;28;25078;-73
2023/06/05 14:29:21;;;;;;;12.80;5.05;;;;;;;;;;5038309;28;25083;-74
2023/06/05 14:31:47;;;;;;;8.57;5.18;;;;;;;;;;5040516;28;25071;-73
2023/06/05 14:34:12;;;;;;;11.18;5.35;;;;;;;;;;5034170;28;25060;-72
2023/06/05 14:36:39;;;;;;;8.95;5.38;;;;;;;;;;5034065;28;25082;-73
2023/06/05 14:39:05;;;;;;;14.80;6.40;;;;;;;;;;5035051;28;25100;-73